Time;durP1;ratioP1;P1;durP2;ratioP2;P2;SDS_P1;SDS_P2;PMS_P1;PMS_P2;Temp;Humidity;BMP_temperature;BMP_pressure;BME280_temperature;BME280_humidity;BME280_pressure;Samples;Min_cycle;Max_cycle;Signal;HPM_P1;HPM_P2
2023/10/14 00:01:11;;;;;;;235.33;221.57;;;20.00;44.30;;;;;;5052975;28;20420;-80
2023/10/14 00:03:41;;;;;;;218.30;205.03;;;19.90;41.70;;;;;;5054312;28;20447;-80
2023/10/14 00:06:07;;;;;;;249.53;234.67;;;19.90;40.20;;;;;;5055175;28;20380;-79
2023/10/14 00:11:22;;;;;;;232.60;218.73;;;19.90;29.20;;;;;;5055035;28;20387;-79
2023/10/14 00:13:54;;;;;;;215.63;202.23;;;20.00;25.80;;;;;;5054797;28;20424;-79
2023/10/14 00:16:35;;;;;;;250.13;235.13;;;20.00;26.80;;;;;;5054803;28;20387;-80
2023/10/14 00:19:03;;;;;;;205.90;192.50;;;20.00;26.00;;;;;;5055339;28;20383;-79
2023/10/14 00:21:29;;;;;;;201.47;189.10;;;19.90;28.80;;;;;;5055057;28;20404;-79
2023/10/14 00:24:03;;;;;;;204.43;191.97;;;20.00;20.00;;;;;;5057257;28;20543;-80
2023/10/14 00:26:29;;;;;;;208.40;195.17;;;19.90;25.60;;;;;;5057640;28;20471;-80
2023/10/14 00:31:58;;;;;;;185.37;173.13;;;20.00;21.80;;;;;;4996968;28;20409;-80
2023/10/14 00:34:25;;;;;;;211.93;199.23;;;20.00;25.30;;;;;;5047919;28;20483;-80
2023/10/14 00:36:55;;;;;;;193.27;181.20;;;20.00;21.00;;;;;;5041036;28;20422;-79
2023/10/14 00:39:28;;;;;;;181.20;169.03;;;19.90;18.10;;;;;;5059058;28;20437;-80
2023/10/14 00:41:55;;;;;;;182.53;170.63;;;20.00;17.60;;;;;;5059523;28;20893;-81
2023/10/14 00:44:26;;;;;;;183.00;171.33;;;20.00;14.20;;;;;;5059118;28;20412;-80
2023/10/14 00:46:53;;;;;;;164.83;153.90;;;19.90;14.50;;;;;;5059655;28;20839;-80
2023/10/14 00:49:22;;;;;;;164.87;153.70;;;20.00;9.60;;;;;;5058950;28;20399;-80
2023/10/14 00:51:51;;;;;;;194.93;182.17;;;20.00;13.10;;;;;;5058635;28;20423;-81
2023/10/14 00:57:05;;;;;;;141.00;130.40;;;20.00;3.50;;;;;;5058672;28;20392;-80
2023/10/14 00:59:30;;;;;;;166.77;155.37;;;20.00;1.70;;;;;;5041384;28;20400;-79
2023/10/14 01:02:01;;;;;;;145.83;135.63;;;20.00;1.00;;;;;;5058609;28;20877;-80
2023/10/14 01:04:32;;;;;;;124.43;115.37;;;20.00;1.00;;;;;;5058822;28;20148;-80
2023/10/14 01:12:05;;;;;;;110.23;101.23;;;20.10;1.00;;;;;;5057705;28;20446;-79
2023/10/14 01:14:33;;;;;;;123.77;114.33;;;20.00;1.00;;;;;;5039314;28;20416;-79
2023/10/14 01:16:59;;;;;;;132.47;122.67;;;20.00;1.00;;;;;;5057874;28;20414;-80
2023/10/14 01:19:27;;;;;;;122.93;113.57;;;19.90;1.00;;;;;;5057476;28;20411;-79
2023/10/14 01:21:53;;;;;;;113.30;104.13;;;19.90;1.00;;;;;;5056950;28;20439;-79
2023/10/14 01:24:21;;;;;;;127.47;117.60;;;20.00;1.00;;;;;;5057098;28;20446;-79
2023/10/14 01:27:00;;;;;;;108.60;99.60;;;19.90;1.00;;;;;;5038881;28;20168;-79
2023/10/14 01:29:31;;;;;;;156.80;146.03;;;20.00;1.00;;;;;;5057712;28;20441;-79
2023/10/14 01:32:23;;;;;;;223.70;210.43;;;20.00;4.90;;;;;;5057255;28;20411;-78
2023/10/14 01:34:59;;;;;;;216.17;202.70;;;19.80;27.50;;;;;;5057097;28;20392;-77
2023/10/14 01:37:27;;;;;;;244.80;231.07;;;19.70;63.50;;;;;;5057258;28;20391;-78
2023/10/14 01:40:08;;;;;;;289.30;273.33;;;19.50;88.30;;;;;;5038683;28;20411;-78
2023/10/14 01:42:33;;;;;;;282.00;266.90;;;19.40;98.90;;;;;;5056437;28;20454;-79
2023/10/14 01:44:59;;;;;;;303.77;287.27;;;19.20;99.90;;;;;;5056466;28;20751;-79
2023/10/14 01:47:32;;;;;;;341.83;323.83;;;19.00;99.90;;;;;;5038556;28;20626;-79
2023/10/14 01:50:00;;;;;;;354.93;336.50;;;18.70;99.90;;;;;;5038693;28;20646;-79
2023/10/14 01:52:25;;;;;;;356.90;338.50;;;18.60;99.90;;;;;;5056425;28;20622;-78
2023/10/14 01:54:51;;;;;;;384.00;364.23;;;18.60;99.90;;;;;;5056472;28;20431;-79
2023/10/14 01:57:17;;;;;;;398.63;378.07;;;18.50;99.90;;;;;;5059156;28;20407;-79
2023/10/14 01:59:49;;;;;;;402.63;381.13;;;18.50;99.90;;;;;;5056887;28;20177;-79
2023/10/14 02:02:20;;;;;;;418.47;396.33;;;18.50;99.90;;;;;;5056915;28;20454;-79
2023/10/14 02:04:46;;;;;;;440.07;416.63;;;18.30;99.90;;;;;;5056874;28;20392;-79
2023/10/14 02:07:18;;;;;;;444.10;420.53;;;18.20;99.90;;;;;;5056645;28;20408;-79
2023/10/14 02:09:44;;;;;;;436.67;413.77;;;18.20;99.90;;;;;;5038771;28;20458;-79
2023/10/14 02:12:11;;;;;;;473.77;449.17;;;18.20;99.90;;;;;;5057214;28;20420;-79
2023/10/14 02:14:44;;;;;;;454.00;430.10;;;18.30;99.90;;;;;;5056458;28;20435;-80
2023/10/14 02:17:12;;;;;;;501.50;475.30;;;18.10;99.90;;;;;;5055041;28;20924;-79
2023/10/14 02:19:38;;;;;;;475.37;450.67;;;18.10;99.90;;;;;;5056510;28;20815;-79
2023/10/14 02:22:11;;;;;;;465.37;440.60;;;18.00;99.90;;;;;;5054718;28;20912;-80
2023/10/14 02:24:40;;;;;;;469.63;444.67;;;18.00;99.90;;;;;;5056333;28;20471;-80
2023/10/14 02:27:13;;;;;;;477.47;451.87;;;18.00;99.90;;;;;;5038668;28;20461;-80
2023/10/14 02:29:43;;;;;;;463.30;438.77;;;17.90;99.90;;;;;;5056078;28;20415;-80
2023/10/14 02:32:13;;;;;;;511.40;484.50;;;17.80;99.90;;;;;;5056295;28;20431;-80
2023/10/14 02:34:45;;;;;;;514.53;487.43;;;17.90;99.90;;;;;;5055763;28;20497;-78
2023/10/14 02:37:13;;;;;;;436.63;413.93;;;18.10;99.90;;;;;;5057901;28;20395;-79
2023/10/14 02:39:43;;;;;;;425.67;403.33;;;18.10;99.90;;;;;;5057235;28;20510;-79
2023/10/14 02:42:09;;;;;;;453.27;428.77;;;18.00;99.90;;;;;;5056102;28;20447;-79
2023/10/14 02:44:52;;;;;;;489.03;462.80;;;17.60;99.90;;;;;;5056060;28;20400;-78
2023/10/14 02:47:19;;;;;;;499.23;473.37;;;17.10;99.90;;;;;;5056093;28;20380;-78
2023/10/14 02:49:53;;;;;;;545.87;516.07;;;16.80;99.90;;;;;;5056214;28;20412;-78
2023/10/14 02:52:28;;;;;;;517.73;490.13;;;16.50;99.90;;;;;;5056269;28;20431;-78
2023/10/14 02:55:18;;;;;;;501.47;474.87;;;16.40;99.90;;;;;;5056143;28;20394;-78
2023/10/14 02:57:40;;;;;;;500.60;473.83;;;16.30;99.90;;;;;;5055902;28;20411;-78
2023/10/14 03:00:09;;;;;;;523.27;495.00;;;16.10;99.90;;;;;;5056136;28;20499;-78
2023/10/14 03:02:54;;;;;;;513.10;485.43;;;16.10;99.90;;;;;;5055401;28;20208;-78
2023/10/14 03:05:42;;;;;;;495.97;469.57;;;16.10;99.90;;;;;;5055507;28;20994;-78
2023/10/14 03:08:12;;;;;;;518.87;491.37;;;16.00;99.90;;;;;;5037376;28;20404;-78
2023/10/14 03:11:16;;;;;;;505.20;478.33;;;16.00;99.90;;;;;;5036973;28;20457;-78
2023/10/14 03:13:33;;;;;;;519.23;491.33;;;15.90;99.90;;;;;;5054763;28;20522;-78
2023/10/14 03:16:00;;;;;;;527.17;499.03;;;15.90;99.90;;;;;;5037446;28;20453;-78
2023/10/14 03:18:37;;;;;;;527.23;499.03;;;15.90;99.90;;;;;;5055520;28;20180;-78
2023/10/14 03:21:08;;;;;;;483.40;457.67;;;15.90;99.90;;;;;;5055934;28;20441;-78
2023/10/14 03:23:35;;;;;;;505.27;478.57;;;16.00;99.90;;;;;;5055543;28;20462;-78
2023/10/14 03:26:27;;;;;;;486.97;461.40;;;16.00;99.90;;;;;;5055675;28;20916;-78
2023/10/14 03:28:50;;;;;;;479.80;454.50;;;16.00;99.90;;;;;;5057858;28;20415;-78
2023/10/14 03:31:19;;;;;;;505.33;478.93;;;16.00;99.90;;;;;;5054932;28;20400;-78
2023/10/14 03:33:45;;;;;;;523.67;496.23;;;16.10;99.90;;;;;;5036902;28;20518;-78
2023/10/14 03:36:22;;;;;;;518.07;490.10;;;16.10;99.90;;;;;;5036856;28;20419;-79
2023/10/14 03:39:16;;;;;;;522.90;495.57;;;16.10;99.90;;;;;;5055276;28;20383;-79
2023/10/14 03:41:42;;;;;;;497.07;471.43;;;16.10;99.90;;;;;;5054623;28;20403;-79
2023/10/14 03:44:14;;;;;;;500.13;473.63;;;16.00;99.90;;;;;;5054643;28;20447;-78
2023/10/14 03:46:43;;;;;;;493.40;466.53;;;16.10;99.90;;;;;;5055489;28;20899;-78
2023/10/14 03:49:20;;;;;;;513.37;486.07;;;16.10;99.90;;;;;;5055328;28;20397;-78
2023/10/14 03:51:47;;;;;;;525.33;497.33;;;16.10;99.90;;;;;;5055258;28;20437;-79
2023/10/14 03:54:19;;;;;;;516.00;488.83;;;16.00;99.90;;;;;;5056100;28;20414;-79
2023/10/14 03:56:45;;;;;;;543.60;514.53;;;15.80;99.90;;;;;;5056025;28;20884;-79
2023/10/14 03:59:20;;;;;;;515.87;489.00;;;15.50;99.90;;;;;;5056333;28;20414;-79
2023/10/14 04:01:46;;;;;;;467.40;442.33;;;15.40;99.90;;;;;;5056216;28;20878;-80
2023/10/14 04:04:17;;;;;;;473.57;448.53;;;15.40;99.90;;;;;;5057091;28;20488;-80
2023/10/14 04:06:51;;;;;;;468.33;443.93;;;15.30;99.90;;;;;;5063104;28;20149;-80
2023/10/14 04:09:23;;;;;;;507.80;480.80;;;15.20;99.90;;;;;;5062794;28;20392;-79
2023/10/14 04:11:52;;;;;;;481.00;455.57;;;15.10;99.90;;;;;;5062117;28;20388;-79
2023/10/14 04:14:22;;;;;;;475.30;449.30;;;14.90;99.90;;;;;;5061669;28;20410;-78
2023/10/14 04:16:49;;;;;;;471.20;445.70;;;14.80;99.90;;;;;;5044139;28;20411;-79
2023/10/14 04:19:44;;;;;;;579.27;545.13;;;14.70;99.90;;;;;;5043069;28;20448;-78
2023/10/14 04:24:53;;;;;;;517.67;489.60;;;14.10;99.90;;;;;;5061419;28;20470;-78
2023/10/14 04:27:32;;;;;;;505.80;478.87;;;14.00;99.90;;;;;;5059705;28;20418;-78
2023/10/14 04:30:11;;;;;;;511.93;484.90;;;13.90;99.90;;;;;;5061675;28;20372;-79
2023/10/14 04:32:42;;;;;;;465.55;440.73;;;13.90;99.90;;;;;;5060814;28;20423;-79
2023/10/14 04:35:09;;;;;;;472.67;447.57;;;14.00;99.90;;;;;;5042270;28;20183;-79
2023/10/14 04:37:53;;;;;;;439.43;416.20;;;14.00;99.90;;;;;;5060407;28;20431;-79
2023/10/14 04:40:53;;;;;;;448.27;424.20;;;14.10;99.90;;;;;;5060286;28;20462;-79
2023/10/14 04:51:09;;;;;;;380.80;360.33;;;14.10;99.90;;;;;;5060043;28;20415;-79
2023/10/14 04:53:35;;;;;;;391.73;371.13;;;14.20;99.90;;;;;;5042022;28;20187;-79
2023/10/14 04:56:08;;;;;;;406.33;384.40;;;14.20;99.90;;;;;;5042312;28;20407;-80
2023/10/14 04:58:34;;;;;;;410.77;389.00;;;14.30;99.90;;;;;;5061671;28;20403;-80
2023/10/14 05:01:01;;;;;;;397.87;376.70;;;14.30;99.90;;;;;;5044916;28;20422;-80
2023/10/14 05:03:30;;;;;;;399.37;378.17;;;14.30;99.90;;;;;;5061760;28;20800;-80
2023/10/14 05:05:56;;;;;;;391.80;370.43;;;14.30;99.90;;;;;;5061319;28;20412;-80
2023/10/14 05:08:43;;;;;;;374.37;354.07;;;14.40;99.90;;;;;;5061552;28;20495;-80
2023/10/14 05:11:13;;;;;;;374.33;353.80;;;14.40;99.90;;;;;;5044054;28;20396;-80
2023/10/14 05:13:42;;;;;;;391.53;370.20;;;14.40;99.90;;;;;;5061431;28;20425;-80
2023/10/14 05:16:30;;;;;;;427.90;405.00;;;14.50;99.90;;;;;;5059580;28;20403;-80
2023/10/14 05:19:15;;;;;;;480.83;454.77;;;14.50;99.90;;;;;;5058605;28;20918;-80
2023/10/14 05:21:43;;;;;;;422.53;400.47;;;14.50;99.90;;;;;;5058963;28;20911;-80
2023/10/14 05:24:10;;;;;;;371.97;351.80;;;14.50;99.90;;;;;;5040075;28;20447;-80
2023/10/14 05:26:46;;;;;;;374.63;354.77;;;14.50;99.90;;;;;;5058322;28;20503;-80
2023/10/14 05:29:19;;;;;;;381.70;361.23;;;14.50;99.90;;;;;;5058213;28;20820;-80
2023/10/14 05:31:49;;;;;;;381.37;360.80;;;14.50;99.90;;;;;;5057941;28;20474;-80
2023/10/14 05:34:24;;;;;;;371.33;351.27;;;14.40;99.90;;;;;;5058056;28;20769;-80
2023/10/14 05:36:52;;;;;;;357.10;337.77;;;14.40;99.90;;;;;;5058387;28;20418;-80
2023/10/14 05:39:20;;;;;;;359.43;340.50;;;14.30;99.90;;;;;;5058116;28;20487;-80
2023/10/14 05:41:48;;;;;;;351.07;332.37;;;14.40;99.90;;;;;;5057458;28;20396;-80
2023/10/14 05:44:14;;;;;;;370.20;350.03;;;14.30;99.90;;;;;;5057172;28;20448;-80
2023/10/14 05:46:43;;;;;;;382.23;362.03;;;14.30;99.90;;;;;;5056758;28;20467;-80
2023/10/14 05:49:08;;;;;;;330.90;312.03;;;14.30;99.90;;;;;;5056544;28;20400;-79
2023/10/14 05:51:35;;;;;;;337.80;319.23;;;14.30;99.90;;;;;;5056827;28;20458;-79
2023/10/14 05:54:02;;;;;;;345.80;326.53;;;14.20;99.90;;;;;;5056769;28;20866;-80
2023/10/14 05:56:28;;;;;;;348.70;329.87;;;14.20;99.90;;;;;;5056410;28;20407;-80
2023/10/14 05:58:54;;;;;;;361.40;342.10;;;14.20;99.90;;;;;;5038501;28;20415;-80
2023/10/14 06:01:24;;;;;;;312.97;295.37;;;14.10;99.90;;;;;;5056622;28;20412;-79
2023/10/14 06:03:49;;;;;;;337.43;319.20;;;14.10;99.90;;;;;;5056355;28;20443;-79
2023/10/14 06:06:15;;;;;;;337.67;318.87;;;14.10;99.90;;;;;;5056210;28;20415;-79
2023/10/14 06:08:49;;;;;;;400.57;379.07;;;14.10;99.90;;;;;;5056329;28;20157;-79
2023/10/14 06:11:16;;;;;;;344.67;325.20;;;14.10;99.90;;;;;;5038014;28;20479;-78
2023/10/14 06:13:43;;;;;;;301.23;284.37;;;14.10;99.90;;;;;;5054395;28;20442;-79
2023/10/14 06:16:11;;;;;;;328.93;310.87;;;14.00;99.90;;;;;;5055664;28;20411;-78
2023/10/14 06:18:38;;;;;;;323.30;305.13;;;14.00;99.90;;;;;;5037392;28;20408;-79
2023/10/14 06:21:06;;;;;;;317.47;299.27;;;14.00;99.90;;;;;;5055433;28;20403;-79
2023/10/14 06:23:35;;;;;;;336.77;318.47;;;14.00;99.90;;;;;;5055229;28;20451;-79
2023/10/14 06:26:01;;;;;;;335.40;316.63;;;14.00;99.90;;;;;;5055528;28;20414;-78
2023/10/14 06:28:29;;;;;;;312.67;295.10;;;14.00;99.90;;;;;;5054248;28;20893;-78
2023/10/14 06:30:55;;;;;;;326.17;307.40;;;14.00;99.90;;;;;;5055225;28;20529;-78
2023/10/14 06:33:26;;;;;;;300.87;283.53;;;14.00;99.90;;;;;;5055313;28;20447;-78
2023/10/14 06:35:52;;;;;;;334.10;316.00;;;14.00;99.90;;;;;;5055893;28;20146;-78
2023/10/14 06:38:19;;;;;;;341.70;323.50;;;13.90;99.90;;;;;;5055555;28;20769;-78
2023/10/14 06:40:54;;;;;;;329.73;311.30;;;14.00;99.90;;;;;;5055177;28;20410;-78
2023/10/14 06:43:22;;;;;;;355.40;336.20;;;13.90;99.90;;;;;;5037849;28;20504;-78
2023/10/14 06:45:51;;;;;;;333.40;315.07;;;14.10;99.90;;;;;;5055501;28;20412;-78
2023/10/14 06:48:17;;;;;;;314.50;297.23;;;14.10;99.90;;;;;;5037468;28;20408;-78
2023/10/14 06:50:47;;;;;;;330.23;311.53;;;14.10;99.90;;;;;;5037595;28;20963;-78
2023/10/14 06:53:15;;;;;;;316.67;299.10;;;14.10;99.90;;;;;;5037250;28;20439;-79
2023/10/14 06:55:41;;;;;;;284.60;268.73;;;14.00;99.90;;;;;;5055582;28;20996;-78
2023/10/14 06:58:08;;;;;;;315.07;297.00;;;14.00;99.90;;;;;;5055055;28;20431;-78
2023/10/14 07:00:37;;;;;;;296.43;279.50;;;14.00;99.90;;;;;;5055146;28;20959;-79
2023/10/14 07:03:06;;;;;;;263.15;247.45;;;13.80;99.90;;;;;;5055173;28;20507;-79
2023/10/14 07:05:42;;;;;;;257.80;242.30;;;13.90;99.90;;;;;;5055189;28;20153;-78
2023/10/14 07:08:09;;;;;;;251.53;236.53;;;13.70;99.90;;;;;;5055084;28;20380;-78
2023/10/14 07:10:35;;;;;;;292.10;275.33;;;13.70;99.90;;;;;;5037180;28;20411;-78
2023/10/14 07:13:01;;;;;;;266.87;250.90;;;13.80;99.90;;;;;;5036868;28;20820;-79
2023/10/14 07:15:33;;;;;;;298.23;281.30;;;13.80;99.90;;;;;;5054964;28;20165;-78
2023/10/14 07:18:00;;;;;;;267.70;251.40;;;13.70;99.90;;;;;;5054653;28;20235;-78
2023/10/14 07:20:30;;;;;;;269.67;253.77;;;13.80;99.90;;;;;;5054651;28;20403;-77
2023/10/14 07:22:58;;;;;;;287.77;270.87;;;13.80;99.90;;;;;;5036412;28;20816;-78
2023/10/14 07:25:30;;;;;;;350.77;331.57;;;13.70;99.90;;;;;;5054417;28;20750;-78
2023/10/14 07:27:59;;;;;;;311.40;293.53;;;13.70;99.90;;;;;;5054690;28;20383;-78
2023/10/14 07:30:29;;;;;;;291.05;274.08;;;13.80;99.90;;;;;;5054398;28;20397;-78
2023/10/14 07:32:55;;;;;;;287.92;271.15;;;13.80;99.90;;;;;;5036345;28;20201;-78
2023/10/14 07:35:22;;;;;;;341.00;322.20;;;13.80;99.90;;;;;;5054006;28;20175;-78
2023/10/14 07:37:49;;;;;;;281.60;265.43;;;13.90;99.90;;;;;;5054274;28;20889;-78
2023/10/14 07:40:31;;;;;;;270.50;254.30;;;13.90;99.90;;;;;;5053826;28;20787;-77
2023/10/14 07:43:05;;;;;;;267.77;252.50;;;13.90;99.90;;;;;;5036029;28;20524;-78
2023/10/14 07:45:46;;;;;;;283.70;267.23;;;13.90;99.90;;;;;;5020363;28;20407;-78
2023/10/14 07:48:13;;;;;;;252.50;237.57;;;13.80;99.90;;;;;;5036015;28;20400;-78
2023/10/14 07:50:47;;;;;;;264.23;249.03;;;13.80;99.90;;;;;;5053906;28;20419;-78
2023/10/14 07:53:14;;;;;;;252.13;236.60;;;13.80;99.90;;;;;;5037228;28;20437;-78
2023/10/14 07:55:47;;;;;;;268.10;251.87;;;13.80;99.90;;;;;;5053585;28;20494;-77
2023/10/14 07:58:19;;;;;;;251.87;236.00;;;13.80;99.90;;;;;;5053815;28;20465;-78
2023/10/14 08:00:49;;;;;;;232.37;218.30;;;13.90;99.90;;;;;;5035828;28;20404;-78
2023/10/14 08:03:31;;;;;;;240.10;225.53;;;13.90;99.90;;;;;;5035973;28;20983;-78
2023/10/14 08:06:05;;;;;;;251.03;236.13;;;13.80;99.90;;;;;;5053623;28;20441;-78
2023/10/14 08:08:31;;;;;;;267.10;251.48;;;13.80;99.90;;;;;;5035529;28;20396;-78
2023/10/14 08:10:59;;;;;;;248.73;233.87;;;13.80;99.90;;;;;;5053642;28;20165;-77
2023/10/14 08:13:26;;;;;;;264.63;249.00;;;13.90;99.90;;;;;;5053553;28;20427;-78
2023/10/14 08:15:54;;;;;;;230.10;216.13;;;13.90;99.90;;;;;;5053150;28;20909;-78
2023/10/14 08:18:24;;;;;;;226.33;212.57;;;13.80;99.90;;;;;;5053883;28;20917;-77
2023/10/14 08:20:56;;;;;;;215.57;201.70;;;13.70;99.90;;;;;;5054001;28;20881;-77
2023/10/14 08:23:24;;;;;;;202.83;189.67;;;13.80;99.90;;;;;;5035831;28;20820;-78
2023/10/14 08:25:54;;;;;;;213.23;199.47;;;13.80;99.90;;;;;;5035529;28;20485;-78
2023/10/14 08:28:23;;;;;;;259.47;243.90;;;13.90;99.90;;;;;;5053454;28;20400;-78
2023/10/14 08:30:50;;;;;;;272.80;256.73;;;13.90;99.90;;;;;;5053308;28;20489;-78
2023/10/14 08:33:21;;;;;;;217.67;203.73;;;14.00;99.90;;;;;;5053432;28;20834;-77
2023/10/14 08:35:51;;;;;;;230.33;215.70;;;14.00;99.40;;;;;;5052260;28;20924;-78
2023/10/14 08:38:27;;;;;;;212.30;198.97;;;14.00;95.90;;;;;;5035258;28;20457;-78
2023/10/14 08:40:54;;;;;;;228.67;214.70;;;13.90;97.60;;;;;;5053565;28;20398;-77
2023/10/14 08:43:26;;;;;;;207.17;194.03;;;14.00;99.70;;;;;;5053054;28;20486;-78
2023/10/14 08:45:53;;;;;;;190.03;177.60;;;14.00;90.60;;;;;;5053509;28;20491;-77
2023/10/14 08:48:24;;;;;;;255.98;240.75;;;14.00;92.00;;;;;;5035299;28;20476;-77
2023/10/14 08:50:56;;;;;;;192.80;179.70;;;14.00;87.80;;;;;;5053358;28;20200;-77
2023/10/14 08:53:23;;;;;;;184.10;170.80;;;14.10;91.70;;;;;;5039094;28;20463;-78
2023/10/14 08:55:49;;;;;;;172.77;160.33;;;14.00;70.20;;;;;;5056930;28;20407;-77
2023/10/14 08:58:19;;;;;;;174.47;162.43;;;14.10;73.60;;;;;;5039240;28;20411;-77
2023/10/14 09:00:45;;;;;;;154.10;142.00;;;14.00;74.00;;;;;;5057016;28;20498;-78
2023/10/14 09:03:11;;;;;;;177.47;165.03;;;14.10;69.00;;;;;;5056517;28;20529;-77
2023/10/14 09:05:41;;;;;;;162.93;151.37;;;14.20;76.90;;;;;;5056825;28;20165;-77
2023/10/14 09:08:21;;;;;;;134.50;124.03;;;14.20;53.30;;;;;;5038726;28;20479;-78
2023/10/14 09:10:50;;;;;;;169.80;157.13;;;14.30;52.20;;;;;;5038832;28;20410;-77
2023/10/14 09:13:20;;;;;;;138.97;127.73;;;14.40;61.70;;;;;;5038840;28;20427;-77
2023/10/14 09:15:46;;;;;;;165.57;153.40;;;14.40;39.10;;;;;;5038755;28;20404;-78
2023/10/14 09:18:13;;;;;;;187.33;174.60;;;14.40;57.20;;;;;;5038787;28;20407;-78
2023/10/14 09:20:40;;;;;;;148.80;135.77;;;14.50;47.20;;;;;;5056415;28;20445;-78
2023/10/14 09:23:27;;;;;;;124.10;113.60;;;14.50;45.40;;;;;;5056202;28;21017;-78
2023/10/14 09:26:04;;;;;;;107.93;98.37;;;14.60;24.80;;;;;;5057072;28;20768;-77
2023/10/14 09:28:40;;;;;;;114.63;104.27;;;14.70;36.80;;;;;;5056979;28;20391;-77
2023/10/14 09:31:08;;;;;;;87.77;78.73;;;14.70;5.90;;;;;;5038507;28;20407;-77
2023/10/14 09:33:42;;;;;;;139.63;128.70;;;14.80;10.20;;;;;;5056022;28;20424;-77
2023/10/14 09:36:14;;;;;;;84.80;76.00;;;14.80;1.00;;;;;;5056444;28;20380;-77
2023/10/14 09:38:53;;;;;;;77.03;68.73;;;14.80;1.00;;;;;;5038433;28;20948;-78
2023/10/14 09:41:19;;;;;;;74.90;58.43;;;14.80;1.00;;;;;;5038431;28;20417;-77
2023/10/14 09:43:46;;;;;;;82.60;60.53;;;14.70;1.00;;;;;;5056365;28;20482;-77
2023/10/14 09:46:16;;;;;;;87.43;78.43;;;14.60;1.00;;;;;;5056398;28;20431;-77
2023/10/14 09:48:46;;;;;;;84.90;75.77;;;14.60;1.00;;;;;;5038151;28;20411;-77
2023/10/14 09:51:14;;;;;;;79.93;66.80;;;14.60;1.00;;;;;;5056051;28;20458;-79
2023/10/14 09:53:40;;;;;;;80.67;72.03;;;14.60;1.00;;;;;;5055894;28;20466;-77
2023/10/14 09:56:10;;;;;;;72.33;53.73;;;14.70;1.00;;;;;;5055937;28;20471;-78
2023/10/14 09:58:41;;;;;;;80.13;69.77;;;14.70;1.00;;;;;;5056456;28;20198;-77
2023/10/14 10:01:12;;;;;;;82.50;69.20;;;14.80;1.00;;;;;;5038015;28;20784;-78
2023/10/14 10:03:44;;;;;;;69.70;45.90;;;14.70;1.00;;;;;;5055389;28;20447;-77
2023/10/14 10:06:28;;;;;;;67.23;44.07;;;14.80;1.00;;;;;;5055739;28;20462;-78
2023/10/14 10:09:22;;;;;;;63.60;38.37;;;14.70;1.00;;;;;;5055740;28;20380;-77
2023/10/14 10:11:51;;;;;;;65.60;36.30;;;14.70;1.00;;;;;;5037575;28;20407;-77
2023/10/14 10:14:20;;;;;;;78.13;64.93;;;14.70;1.00;;;;;;5055613;28;20403;-77
2023/10/14 10:16:50;;;;;;;65.23;41.30;;;14.70;1.00;;;;;;5037779;28;20416;-77
2023/10/14 10:19:16;;;;;;;66.97;40.77;;;14.70;1.00;;;;;;5037988;28;20415;-78
2023/10/14 10:22:16;;;;;;;73.97;60.63;;;14.80;1.00;;;;;;5055170;28;20399;-77
2023/10/14 10:24:45;;;;;;;64.17;39.03;;;15.20;1.00;;;;;;5037756;28;20419;-78
2023/10/14 10:27:11;;;;;;;66.03;44.00;;;15.50;1.00;;;;;;5055369;28;20384;-78
2023/10/14 10:29:51;;;;;;;64.17;43.33;;;15.60;1.00;;;;;;5055223;28;20885;-77
2023/10/14 10:32:29;;;;;;;73.47;41.17;;;15.70;1.00;;;;;;5055120;28;21028;-77
2023/10/14 10:35:07;;;;;;;63.30;45.67;;;15.80;1.00;;;;;;5055215;28;20364;-78
2023/10/14 10:37:55;;;;;;;61.43;37.73;;;15.80;1.00;;;;;;5055300;28;20391;-77
2023/10/14 10:40:25;;;;;;;69.13;42.27;;;15.80;1.00;;;;;;5037233;28;20396;-78
2023/10/14 10:43:06;;;;;;;63.97;33.17;;;15.90;1.00;;;;;;5055218;28;20448;-77
2023/10/14 10:45:36;;;;;;;58.30;34.20;;;16.00;1.00;;;;;;5055210;28;20439;-78
2023/10/14 10:48:05;;;;;;;54.87;27.57;;;16.00;1.00;;;;;;5054998;28;20510;-77
2023/10/14 10:50:36;;;;;;;56.77;26.67;;;16.10;1.00;;;;;;5037181;28;20427;-78
2023/10/14 10:53:08;;;;;;;58.03;29.90;;;16.20;1.00;;;;;;5055043;28;20526;-77
2023/10/14 10:55:38;;;;;;;57.07;24.43;;;16.10;1.00;;;;;;5054909;28;20399;-77
2023/10/14 10:58:05;;;;;;;56.23;24.97;;;16.10;1.00;;;;;;5036910;28;20422;-77
2023/10/14 11:00:32;;;;;;;53.90;23.47;;;16.00;1.00;;;;;;5054756;28;20399;-77
2023/10/14 11:02:58;;;;;;;52.03;25.60;;;16.00;1.00;;;;;;5055061;28;20597;-78
2023/10/14 11:05:25;;;;;;;55.97;23.27;;;16.00;1.00;;;;;;5036626;28;20928;-77
2023/10/14 11:07:54;;;;;;;54.20;28.27;;;16.20;1.00;;;;;;5054571;28;20407;-78
2023/10/14 11:10:27;;;;;;;54.63;29.07;;;16.30;1.00;;;;;;5055103;28;20464;-77
2023/10/14 11:12:57;;;;;;;57.50;25.43;;;16.30;1.00;;;;;;5054551;28;20425;-78
2023/10/14 11:15:25;;;;;;;51.97;24.50;;;16.20;1.00;;;;;;5053706;28;20465;-77
2023/10/14 11:17:57;;;;;;;53.53;27.87;;;16.10;1.00;;;;;;5054203;28;20400;-77
2023/10/14 11:20:43;;;;;;;52.50;25.07;;;16.00;1.00;;;;;;5036429;28;20408;-78
2023/10/14 11:23:11;;;;;;;51.10;22.63;;;15.90;1.00;;;;;;5053629;28;20463;-77
2023/10/14 11:25:40;;;;;;;53.17;25.73;;;15.70;1.00;;;;;;5036220;28;20908;-78
2023/10/14 11:28:07;;;;;;;52.90;25.97;;;15.60;1.00;;;;;;5054230;28;20404;-77
2023/10/14 11:30:40;;;;;;;52.03;22.73;;;15.60;1.00;;;;;;5052719;28;20423;-77
2023/10/14 11:33:09;;;;;;;49.53;16.80;;;15.50;1.00;;;;;;5036085;28;20808;-77
2023/10/14 11:35:37;;;;;;;49.10;20.77;;;15.40;1.00;;;;;;5054131;28;20465;-77
2023/10/14 11:38:07;;;;;;;55.40;21.77;;;15.40;1.00;;;;;;5054157;28;20407;-78
2023/10/14 11:40:37;;;;;;;52.20;23.57;;;15.40;1.00;;;;;;5054058;28;20384;-78
2023/10/14 11:43:05;;;;;;;50.77;25.77;;;15.40;1.00;;;;;;5053788;28;20447;-78
2023/10/14 11:45:31;;;;;;;52.87;24.70;;;15.50;1.00;;;;;;5053648;28;20442;-77
2023/10/14 11:48:00;;;;;;;57.17;22.83;;;15.80;1.00;;;;;;5053741;28;20399;-77
2023/10/14 11:50:27;;;;;;;45.20;14.80;;;16.10;1.00;;;;;;5053667;28;20419;-77
2023/10/14 11:52:57;;;;;;;44.77;14.80;;;16.40;1.00;;;;;;5053716;28;20839;-77
2023/10/14 11:55:27;;;;;;;42.20;14.80;;;16.60;1.00;;;;;;5054282;28;20742;-77
2023/10/14 11:57:56;;;;;;;46.00;18.60;;;16.70;1.00;;;;;;5035674;28;20439;-77
2023/10/14 12:00:22;;;;;;;44.30;14.83;;;16.80;1.00;;;;;;5035786;28;20442;-77
2023/10/14 12:02:48;;;;;;;44.33;19.07;;;16.80;1.00;;;;;;5053842;28;20485;-77
2023/10/14 12:05:17;;;;;;;45.60;17.20;;;16.90;1.00;;;;;;5053458;28;20185;-78
2023/10/14 12:07:52;;;;;;;47.50;15.80;;;16.90;1.00;;;;;;5053705;28;20402;-77
2023/10/14 12:10:25;;;;;;;41.60;16.33;;;16.80;1.00;;;;;;5053571;28;20383;-77
2023/10/14 12:12:54;;;;;;;44.57;15.37;;;16.70;1.00;;;;;;5054033;28;20781;-77
2023/10/14 12:15:20;;;;;;;53.73;18.07;;;16.40;1.00;;;;;;5053817;28;20446;-77
2023/10/14 12:17:46;;;;;;;42.40;14.93;;;16.10;1.00;;;;;;5053516;28;20476;-78
2023/10/14 12:20:12;;;;;;;46.40;16.80;;;15.80;1.00;;;;;;5053726;28;20643;-77
2023/10/14 12:22:39;;;;;;;44.17;15.60;;;15.80;1.00;;;;;;5035725;28;20197;-77
2023/10/14 12:25:05;;;;;;;44.90;14.60;;;15.80;1.00;;;;;;5035912;28;20411;-78
2023/10/14 12:27:33;;;;;;;50.43;18.50;;;15.60;1.00;;;;;;5057561;28;20414;-77
2023/10/14 12:30:00;;;;;;;46.67;17.47;;;15.50;1.00;;;;;;5039479;28;20751;-77
2023/10/14 12:32:30;;;;;;;48.37;15.37;;;15.50;1.00;;;;;;5023116;28;20439;-77
2023/10/14 12:35:00;;;;;;;44.07;15.70;;;15.70;1.00;;;;;;5057459;28;20387;-77
2023/10/14 12:37:34;;;;;;;44.70;19.23;;;15.80;1.00;;;;;;5039348;28;20780;-77
2023/10/14 12:40:11;;;;;;;41.57;15.10;;;15.60;1.00;;;;;;5057618;28;20379;-78
2023/10/14 12:43:00;;;;;;;36.57;12.23;;;15.70;1.00;;;;;;5057030;28;20534;-77
2023/10/14 12:45:26;;;;;;;38.67;12.77;;;15.80;1.00;;;;;;5057389;28;20928;-78
2023/10/14 12:48:09;;;;;;;38.60;11.10;;;16.00;1.00;;;;;;5039519;28;20418;-77
2023/10/14 12:50:40;;;;;;;39.27;13.07;;;15.90;1.00;;;;;;5057107;28;20435;-77
2023/10/14 12:53:08;;;;;;;38.87;13.00;;;16.00;1.00;;;;;;5055565;28;20450;-78
2023/10/14 12:55:36;;;;;;;41.13;13.67;;;16.10;1.00;;;;;;5057347;28;20500;-77
2023/10/14 12:58:02;;;;;;;40.70;15.87;;;16.10;1.00;;;;;;5038864;28;20412;-77